EJA3420 KFLL-KDCA
Flight info
| Callsign | EJA3420 |
|---|---|
| Flight time | N/A |
| Altitude | 45000 |
| Route | FEALX2 ETECK GRUBR Y299 SEELO GARIC RANAY TANJA WAVES CAPSS4 |
| Aircraft | C700/M-SBDGHM1RWXY/LB2 |
Departure
| Time | 2026-05-04 01:43 |
|---|---|
| Airport | Fort Lauderdale Hollywood International Airport (KFLL) |
Arrival
| Time | N/A |
|---|---|
| Airport | Ronald Reagan Washington National Airport (KDCA) |
| Time | Latitude | Longitude | Altitude | Speed | Heading |
|---|---|---|---|---|---|
| 2026-05-04 01:22 | 26.07321 | -80.15707 | 14 ft | 0 kts | 320° |
| 2026-05-04 01:38 | 26.07322 | -80.15708 | 14 ft | 3 kts | 322° |
| 2026-05-04 01:38 | 26.07362 | -80.15718 | 14 ft | 7 kts | 356° |
| 2026-05-04 01:39 | 26.07384 | -80.15711 | 14 ft | 0 kts | 27° |
| 2026-05-04 01:39 | 26.07423 | -80.15704 | 14 ft | 10 kts | 346° |
| 2026-05-04 01:39 | 26.07478 | -80.15759 | 14 ft | 13 kts | 313° |
| 2026-05-04 01:39 | 26.07494 | -80.15877 | 15 ft | 17 kts | 270° |
| 2026-05-04 01:40 | 26.07495 | -80.16008 | 19 ft | 17 kts | 270° |
| 2026-05-04 01:40 | 26.07496 | -80.16147 | 20 ft | 19 kts | 271° |
| 2026-05-04 01:40 | 26.07496 | -80.16307 | 18 ft | 22 kts | 270° |
| 2026-05-04 01:40 | 26.07497 | -80.16485 | 19 ft | 24 kts | 270° |
| 2026-05-04 01:41 | 26.07516 | -80.16635 | 18 ft | 16 kts | 319° |
| 2026-05-04 01:41 | 26.07584 | -80.16644 | 16 ft | 0 kts | 0° |
| 2026-05-04 01:42 | 26.07612 | -80.16643 | 17 ft | 12 kts | 1° |
| 2026-05-04 01:43 | 26.07694 | -80.16601 | 16 ft | 15 kts | 78° |
| 2026-05-04 01:43 | 26.07693 | -80.16363 | 21 ft | 66 kts | 90° |
| 2026-05-04 01:43 | 26.07688 | -80.15493 | 63 ft | 152 kts | 89° |
| 2026-05-04 01:43 | 26.07684 | -80.14216 | 933 ft | 171 kts | 86° |
| 2026-05-04 01:44 | 26.07718 | -80.12715 | 1461 ft | 217 kts | 88° |
| 2026-05-04 01:44 | 26.07717 | -80.11143 | 2563 ft | 163 kts | 91° |
| 2026-05-04 01:44 | 26.07701 | -80.09754 | 3866 ft | 188 kts | 91° |
| 2026-05-04 01:44 | 26.07728 | -80.08157 | 4433 ft | 234 kts | 90° |
| 2026-05-04 01:45 | 26.07751 | -80.06219 | 4237 ft | 260 kts | 90° |
| 2026-05-04 01:45 | 26.07758 | -80.04213 | 5035 ft | 268 kts | 91° |
| 2026-05-04 01:45 | 26.08233 | -79.99813 | 5932 ft | 300 kts | 64° |
| 2026-05-04 01:46 | 26.08985 | -79.98549 | 5798 ft | 294 kts | 51° |
| 2026-05-04 01:46 | 26.10279 | -79.96817 | 5618 ft | 290 kts | 49° |
| 2026-05-04 01:46 | 26.11568 | -79.95063 | 6025 ft | 294 kts | 52° |
| 2026-05-04 01:46 | 26.12747 | -79.93236 | 7741 ft | 292 kts | 53° |
| 2026-05-04 01:47 | 26.13944 | -79.91362 | 9214 ft | 302 kts | 52° |
| 2026-05-04 01:47 | 26.15202 | -79.89446 | 10576 ft | 315 kts | 52° |
| 2026-05-04 01:47 | 26.16555 | -79.87392 | 11520 ft | 341 kts | 52° |
| 2026-05-04 01:47 | 26.17962 | -79.85230 | 12955 ft | 348 kts | 53° |
| 2026-05-04 01:48 | 26.19405 | -79.83016 | 14268 ft | 359 kts | 53° |
| 2026-05-04 01:48 | 26.20895 | -79.80734 | 15429 ft | 370 kts | 52° |
| 2026-05-04 01:48 | 26.22430 | -79.78379 | 16569 ft | 381 kts | 52° |
| 2026-05-04 01:48 | 26.24007 | -79.75964 | 17731 ft | 390 kts | 52° |
| 2026-05-04 01:49 | 26.25621 | -79.73484 | 18790 ft | 400 kts | 52° |
| 2026-05-04 01:49 | 26.27270 | -79.70950 | 19793 ft | 408 kts | 52° |
| 2026-05-04 01:49 | 26.28956 | -79.68373 | 20782 ft | 415 kts | 50° |
| 2026-05-04 01:49 | 26.30915 | -79.65989 | 21751 ft | 420 kts | 41° |
| 2026-05-04 01:50 | 26.32988 | -79.63652 | 22715 ft | 428 kts | 42° |
| 2026-05-04 01:50 | 26.35060 | -79.61226 | 23641 ft | 436 kts | 43° |
| 2026-05-04 01:50 | 26.37179 | -79.58766 | 24416 ft | 443 kts | 42° |
| 2026-05-04 01:50 | 26.39347 | -79.56292 | 25219 ft | 449 kts | 42° |
| 2026-05-04 01:51 | 26.41539 | -79.53779 | 26031 ft | 455 kts | 42° |
| 2026-05-04 01:51 | 26.43753 | -79.51219 | 26819 ft | 462 kts | 42° |
| 2026-05-04 01:51 | 26.46001 | -79.48623 | 27582 ft | 468 kts | 42° |
| 2026-05-04 01:51 | 26.48286 | -79.45991 | 28358 ft | 474 kts | 43° |
| 2026-05-04 01:52 | 26.50560 | -79.43367 | 29134 ft | 479 kts | 43° |
| 2026-05-04 01:52 | 26.52888 | -79.40673 | 29885 ft | 485 kts | 43° |
| 2026-05-04 01:52 | 26.55361 | -79.38083 | 30538 ft | 487 kts | 34° |
| 2026-05-04 01:52 | 26.58164 | -79.35949 | 31148 ft | 488 kts | 26° |
| 2026-05-04 01:53 | 26.61088 | -79.33980 | 31721 ft | 494 kts | 26° |
| 2026-05-04 01:53 | 26.64044 | -79.31975 | 32285 ft | 500 kts | 26° |
| 2026-05-04 01:53 | 26.67026 | -79.29938 | 32811 ft | 505 kts | 26° |
| 2026-05-04 01:53 | 26.70041 | -79.27883 | 33378 ft | 509 kts | 26° |
| 2026-05-04 01:54 | 26.73061 | -79.25827 | 34116 ft | 508 kts | 26° |
| 2026-05-04 01:54 | 26.76082 | -79.23768 | 34764 ft | 508 kts | 25° |
| 2026-05-04 01:54 | 26.79107 | -79.21706 | 35389 ft | 510 kts | 25° |
| 2026-05-04 01:54 | 26.82137 | -79.19637 | 36011 ft | 510 kts | 25° |
| 2026-05-04 01:55 | 26.85166 | -79.17567 | 36617 ft | 510 kts | 25° |
| 2026-05-04 01:55 | 26.88197 | -79.15495 | 37195 ft | 510 kts | 24° |
| 2026-05-04 01:55 | 26.91227 | -79.13425 | 37736 ft | 510 kts | 24° |
| 2026-05-04 01:55 | 26.94252 | -79.11354 | 38253 ft | 510 kts | 24° |
| 2026-05-04 01:56 | 26.97279 | -79.09282 | 38726 ft | 510 kts | 23° |
| 2026-05-04 01:56 | 27.00304 | -79.07209 | 39115 ft | 509 kts | 23° |
| 2026-05-04 01:56 | 27.03321 | -79.05138 | 39527 ft | 507 kts | 22° |
| 2026-05-04 01:56 | 27.06318 | -79.03081 | 39962 ft | 506 kts | 22° |
| 2026-05-04 01:57 | 27.09331 | -79.01020 | 40203 ft | 508 kts | 21° |
| 2026-05-04 01:57 | 27.12340 | -78.98951 | 40566 ft | 506 kts | 21° |
| 2026-05-04 01:57 | 27.15333 | -78.96887 | 40928 ft | 504 kts | 21° |
| 2026-05-04 01:57 | 27.18318 | -78.94836 | 41268 ft | 502 kts | 21° |
| 2026-05-04 01:58 | 27.21294 | -78.92791 | 41587 ft | 501 kts | 21° |
| 2026-05-04 01:58 | 27.24262 | -78.90748 | 41887 ft | 499 kts | 20° |
| 2026-05-04 01:58 | 27.27220 | -78.88707 | 42177 ft | 498 kts | 20° |
| 2026-05-04 01:58 | 27.30169 | -78.86674 | 42450 ft | 497 kts | 20° |
| 2026-05-04 01:59 | 27.33111 | -78.84645 | 42713 ft | 496 kts | 20° |
| 2026-05-04 01:59 | 27.36048 | -78.82627 | 42958 ft | 492 kts | 18° |
| 2026-05-04 01:59 | 27.39065 | -78.80953 | 43192 ft | 477 kts | 9° |
| 2026-05-04 01:59 | 27.42150 | -78.79749 | 43425 ft | 462 kts | 1° |
| 2026-05-04 02:00 | 27.45238 | -78.78994 | 43647 ft | 447 kts | 354° |
| 2026-05-04 02:00 | 27.48294 | -78.78556 | 43857 ft | 442 kts | 352° |
| 2026-05-04 02:00 | 27.51346 | -78.78108 | 44067 ft | 442 kts | 353° |
| 2026-05-04 02:00 | 27.54388 | -78.77651 | 44271 ft | 441 kts | 352° |
| 2026-05-04 02:01 | 27.57423 | -78.77208 | 44468 ft | 439 kts | 352° |
| 2026-05-04 02:01 | 27.60448 | -78.76771 | 44660 ft | 438 kts | 352° |
| 2026-05-04 02:01 | 27.63463 | -78.76329 | 44855 ft | 437 kts | 352° |
| 2026-05-04 02:01 | 27.66477 | -78.75886 | 44956 ft | 437 kts | 352° |
| 2026-05-04 02:02 | 27.72516 | -78.75003 | 45044 ft | 440 kts | 352° |
| 2026-05-04 02:02 | 27.78578 | -78.74113 | 45050 ft | 445 kts | 352° |
| 2026-05-04 02:03 | 27.84742 | -78.73206 | 45060 ft | 449 kts | 352° |
| 2026-05-04 02:03 | 27.90971 | -78.72291 | 45099 ft | 454 kts | 352° |
| 2026-05-04 02:04 | 27.97271 | -78.71361 | 45074 ft | 459 kts | 353° |
| 2026-05-04 02:04 | 28.03625 | -78.70424 | 45068 ft | 463 kts | 353° |
| 2026-05-04 02:05 | 28.10031 | -78.69478 | 45080 ft | 466 kts | 353° |
| 2026-05-04 02:05 | 28.16488 | -78.68519 | 45064 ft | 469 kts | 353° |
| 2026-05-04 02:06 | 28.22990 | -78.67564 | 45080 ft | 473 kts | 353° |
| 2026-05-04 02:06 | 28.29539 | -78.66587 | 45081 ft | 476 kts | 353° |
| 2026-05-04 02:07 | 28.36127 | -78.65611 | 45083 ft | 479 kts | 353° |
| 2026-05-04 02:07 | 28.42749 | -78.64627 | 45089 ft | 481 kts | 353° |
| 2026-05-04 02:08 | 28.49408 | -78.63637 | 45096 ft | 485 kts | 353° |
| 2026-05-04 02:08 | 28.56102 | -78.62637 | 45096 ft | 486 kts | 353° |
| 2026-05-04 02:09 | 28.62815 | -78.61637 | 45099 ft | 486 kts | 353° |
| 2026-05-04 02:09 | 28.69525 | -78.60634 | 45100 ft | 486 kts | 353° |
| 2026-05-04 02:10 | 28.76240 | -78.59630 | 45099 ft | 487 kts | 353° |
| 2026-05-04 02:10 | 28.82976 | -78.58622 | 45106 ft | 489 kts | 353° |
| 2026-05-04 02:11 | 28.89722 | -78.57609 | 45112 ft | 489 kts | 353° |
| 2026-05-04 02:11 | 28.96473 | -78.56595 | 45113 ft | 489 kts | 353° |
| 2026-05-04 02:12 | 29.03226 | -78.55579 | 45119 ft | 489 kts | 353° |
| 2026-05-04 02:12 | 29.09988 | -78.54565 | 45116 ft | 492 kts | 354° |
| 2026-05-04 02:13 | 29.16782 | -78.53538 | 45120 ft | 493 kts | 354° |
| 2026-05-04 02:13 | 29.23601 | -78.52509 | 45125 ft | 495 kts | 354° |
| 2026-05-04 02:14 | 29.30441 | -78.51475 | 45126 ft | 496 kts | 354° |
| 2026-05-04 02:14 | 29.37286 | -78.50438 | 45131 ft | 496 kts | 354° |
| 2026-05-04 02:15 | 29.44126 | -78.49401 | 45127 ft | 495 kts | 354° |
| 2026-05-04 02:15 | 29.50852 | -78.48992 | 45126 ft | 472 kts | 343° |
| 2026-05-04 02:16 | 29.57275 | -78.49676 | 45132 ft | 466 kts | 341° |
| 2026-05-04 02:16 | 29.63755 | -78.50360 | 45138 ft | 469 kts | 341° |
| 2026-05-04 02:17 | 29.70260 | -78.51069 | 45142 ft | 470 kts | 341° |
| 2026-05-04 02:17 | 29.76784 | -78.51770 | 45141 ft | 471 kts | 341° |
| 2026-05-04 02:18 | 29.83319 | -78.52479 | 45144 ft | 472 kts | 341° |
| 2026-05-04 02:18 | 29.89854 | -78.53187 | 45204 ft | 472 kts | 341° |
| 2026-05-04 02:19 | 29.96421 | -78.53902 | 45146 ft | 476 kts | 341° |
| 2026-05-04 02:19 | 30.03025 | -78.54618 | 45151 ft | 478 kts | 341° |
| 2026-05-04 02:20 | 30.09652 | -78.55339 | 45152 ft | 478 kts | 341° |
| 2026-05-04 02:20 | 30.16365 | -78.55648 | 45154 ft | 494 kts | 351° |
| 2026-05-04 02:21 | 30.23275 | -78.54709 | 45155 ft | 500 kts | 354° |
| 2026-05-04 02:21 | 30.30164 | -78.53746 | 45157 ft | 499 kts | 354° |
| 2026-05-04 02:22 | 30.37045 | -78.52748 | 45156 ft | 499 kts | 354° |
| 2026-05-04 02:22 | 30.43945 | -78.51761 | 45157 ft | 501 kts | 355° |
| 2026-05-04 02:23 | 30.50896 | -78.50588 | 45160 ft | 506 kts | 356° |
| 2026-05-04 02:23 | 30.57856 | -78.49484 | 45164 ft | 505 kts | 355° |
| 2026-05-04 02:24 | 30.64828 | -78.48342 | 45164 ft | 506 kts | 356° |
| 2026-05-04 02:24 | 30.71756 | -78.47222 | 45167 ft | 506 kts | 356° |
| 2026-05-04 02:25 | 30.76215 | -78.46501 | 45167 ft | 509 kts | 357° |
| 2026-05-04 02:25 | 30.83227 | -78.45350 | 45166 ft | 509 kts | 356° |
| 2026-05-04 02:26 | 30.90245 | -78.44210 | 45173 ft | 509 kts | 357° |
| 2026-05-04 02:26 | 30.97262 | -78.43063 | 45171 ft | 509 kts | 357° |
| 2026-05-04 02:27 | 31.04290 | -78.41916 | 45171 ft | 512 kts | 357° |
| 2026-05-04 02:27 | 31.11361 | -78.40755 | 45171 ft | 515 kts | 357° |
| 2026-05-04 02:28 | 31.18449 | -78.39591 | 45175 ft | 514 kts | 357° |
| 2026-05-04 02:28 | 31.25520 | -78.38430 | 45176 ft | 512 kts | 357° |
| 2026-05-04 02:29 | 31.32597 | -78.37270 | 45181 ft | 515 kts | 358° |
| 2026-05-04 02:29 | 31.39697 | -78.36096 | 45174 ft | 516 kts | 358° |
| 2026-05-04 02:30 | 31.46809 | -78.34924 | 45176 ft | 516 kts | 358° |
| 2026-05-04 02:30 | 31.53929 | -78.33745 | 45245 ft | 517 kts | 358° |
| 2026-05-04 02:31 | 31.61076 | -78.32563 | 45179 ft | 519 kts | 358° |
| 2026-05-04 02:31 | 31.68224 | -78.31377 | 45180 ft | 518 kts | 358° |
| 2026-05-04 02:32 | 31.75311 | -78.30202 | 45176 ft | 518 kts | 358° |
| 2026-05-04 02:32 | 31.82443 | -78.29015 | 45178 ft | 518 kts | 358° |
| 2026-05-04 02:33 | 31.89594 | -78.27825 | 45179 ft | 519 kts | 359° |
| 2026-05-04 02:33 | 31.95594 | -78.26822 | 45180 ft | 520 kts | 359° |
| 2026-05-04 02:34 | 32.02754 | -78.25632 | 45181 ft | 519 kts | 358° |
| 2026-05-04 02:34 | 32.09921 | -78.24603 | 45179 ft | 520 kts | 358° |
| 2026-05-04 02:35 | 32.17037 | -78.23545 | 45180 ft | 518 kts | 358° |
| 2026-05-04 02:35 | 32.24181 | -78.22513 | 45179 ft | 517 kts | 358° |
| 2026-05-04 02:36 | 32.31316 | -78.21463 | 45178 ft | 517 kts | 358° |
| 2026-05-04 02:36 | 32.38455 | -78.20420 | 45179 ft | 517 kts | 358° |
| 2026-05-04 02:37 | 32.45585 | -78.19370 | 45178 ft | 516 kts | 358° |
| 2026-05-04 02:37 | 32.52724 | -78.18323 | 45178 ft | 518 kts | 358° |
| 2026-05-04 02:38 | 32.59884 | -78.17268 | 45221 ft | 519 kts | 358° |
| 2026-05-04 02:38 | 32.67050 | -78.16208 | 45181 ft | 518 kts | 358° |
| 2026-05-04 02:39 | 32.74191 | -78.15155 | 45175 ft | 516 kts | 358° |
| 2026-05-04 02:39 | 32.81315 | -78.14101 | 45173 ft | 516 kts | 358° |
| 2026-05-04 02:40 | 32.88444 | -78.13044 | 45173 ft | 516 kts | 358° |
| 2026-05-04 02:40 | 32.95572 | -78.11985 | 45173 ft | 516 kts | 358° |
| 2026-05-04 02:41 | 33.02705 | -78.10924 | 45174 ft | 517 kts | 358° |
| 2026-05-04 02:41 | 33.09844 | -78.09861 | 45174 ft | 517 kts | 358° |
| 2026-05-04 02:42 | 33.16974 | -78.08797 | 45172 ft | 515 kts | 358° |
| 2026-05-04 02:42 | 33.24082 | -78.07735 | 45166 ft | 514 kts | 358° |
| 2026-05-04 02:43 | 33.31182 | -78.06672 | 45168 ft | 515 kts | 358° |
| 2026-05-04 02:43 | 33.38290 | -78.05606 | 45184 ft | 516 kts | 358° |
| 2026-05-04 02:44 | 33.45370 | -78.04542 | 45154 ft | 515 kts | 358° |
| 2026-05-04 02:44 | 33.52467 | -78.03475 | 45153 ft | 513 kts | 358° |
| 2026-05-04 02:45 | 33.59558 | -78.02408 | 45158 ft | 514 kts | 358° |
| 2026-05-04 02:45 | 33.66676 | -78.01332 | 45152 ft | 517 kts | 359° |
| 2026-05-04 02:46 | 33.73789 | -78.00255 | 45146 ft | 514 kts | 358° |
| 2026-05-04 02:46 | 33.80885 | -77.99182 | 45166 ft | 514 kts | 358° |
| 2026-05-04 02:47 | 33.87992 | -77.98103 | 45174 ft | 516 kts | 359° |
| 2026-05-04 02:47 | 33.95104 | -77.97162 | 45166 ft | 513 kts | 357° |
| 2026-05-04 02:48 | 34.02209 | -77.96221 | 45162 ft | 514 kts | 358° |
| 2026-05-04 02:48 | 34.09309 | -77.95261 | 45135 ft | 514 kts | 357° |
| 2026-05-04 02:49 | 34.16443 | -77.94326 | 45152 ft | 517 kts | 358° |
| 2026-05-04 02:49 | 34.23568 | -77.93356 | 45156 ft | 514 kts | 358° |
| 2026-05-04 02:50 | 34.30673 | -77.92414 | 45156 ft | 514 kts | 358° |
| 2026-05-04 02:50 | 34.37771 | -77.91455 | 45153 ft | 513 kts | 358° |
| 2026-05-04 02:51 | 34.44861 | -77.90503 | 45148 ft | 511 kts | 358° |
| 2026-05-04 02:51 | 34.51932 | -77.89550 | 45143 ft | 511 kts | 358° |
| 2026-05-04 02:52 | 34.58956 | -77.88601 | 45144 ft | 511 kts | 358° |
| 2026-05-04 02:52 | 34.66026 | -77.87645 | 45151 ft | 512 kts | 358° |
| 2026-05-04 02:53 | 34.73106 | -77.86687 | 45153 ft | 512 kts | 358° |
| 2026-05-04 02:53 | 34.80187 | -77.85724 | 45151 ft | 512 kts | 358° |
| 2026-05-04 02:54 | 34.87271 | -77.84762 | 45153 ft | 512 kts | 358° |
| 2026-05-04 02:54 | 34.94362 | -77.83795 | 45160 ft | 512 kts | 358° |
| 2026-05-04 02:55 | 35.04967 | -77.82348 | 45158 ft | 511 kts | 358° |
| 2026-05-04 02:56 | 35.12044 | -77.81381 | 45152 ft | 513 kts | 358° |
| 2026-05-04 02:56 | 35.19135 | -77.80408 | 45143 ft | 512 kts | 358° |
| 2026-05-04 02:57 | 35.26202 | -77.79439 | 45144 ft | 511 kts | 358° |
| 2026-05-04 02:57 | 35.33262 | -77.78467 | 45145 ft | 510 kts | 358° |
| 2026-05-04 02:58 | 35.40319 | -77.77495 | 45143 ft | 510 kts | 358° |
| 2026-05-04 02:58 | 35.47374 | -77.76521 | 45139 ft | 510 kts | 358° |
| 2026-05-04 02:59 | 35.54427 | -77.75546 | 45136 ft | 510 kts | 358° |
| 2026-05-04 02:59 | 35.61488 | -77.74569 | 45132 ft | 511 kts | 358° |
| 2026-05-04 03:00 | 35.68545 | -77.73588 | 45126 ft | 509 kts | 358° |
| 2026-05-04 03:00 | 35.75584 | -77.72612 | 45125 ft | 509 kts | 358° |
| 2026-05-04 03:01 | 35.82618 | -77.71633 | 45121 ft | 509 kts | 358° |
| 2026-05-04 03:01 | 35.89646 | -77.70652 | 45142 ft | 508 kts | 358° |
| 2026-05-04 03:02 | 35.96606 | -77.69680 | 45142 ft | 506 kts | 358° |
| 2026-05-04 03:02 | 36.03612 | -77.68699 | 45138 ft | 506 kts | 358° |
| 2026-05-04 03:03 | 36.10616 | -77.67716 | 45133 ft | 507 kts | 358° |
| 2026-05-04 03:03 | 36.17612 | -77.66732 | 45125 ft | 505 kts | 358° |
| 2026-05-04 03:04 | 36.24586 | -77.65753 | 45128 ft | 504 kts | 358° |
| 2026-05-04 03:04 | 36.31561 | -77.64769 | 45127 ft | 504 kts | 359° |
| 2026-05-04 03:04 | 36.35049 | -77.64276 | 44944 ft | 505 kts | 359° |
| 2026-05-04 03:05 | 36.38533 | -77.63784 | 44241 ft | 501 kts | 358° |
| 2026-05-04 03:05 | 36.41964 | -77.63292 | 43586 ft | 492 kts | 358° |
| 2026-05-04 03:05 | 36.45338 | -77.62813 | 42944 ft | 483 kts | 358° |
| 2026-05-04 03:05 | 36.48651 | -77.62347 | 42312 ft | 476 kts | 358° |
| 2026-05-04 03:06 | 36.51915 | -77.61884 | 41691 ft | 470 kts | 358° |
| 2026-05-04 03:06 | 36.55156 | -77.61372 | 41071 ft | 469 kts | 358° |
| 2026-05-04 03:06 | 36.58394 | -77.60830 | 40468 ft | 470 kts | 358° |
| 2026-05-04 03:06 | 36.61659 | -77.60316 | 39855 ft | 476 kts | 358° |
| 2026-05-04 03:07 | 36.64959 | -77.59813 | 39228 ft | 480 kts | 358° |
| 2026-05-04 03:07 | 36.68281 | -77.59285 | 38546 ft | 482 kts | 358° |
| 2026-05-04 03:07 | 36.71598 | -77.58722 | 37894 ft | 479 kts | 358° |
| 2026-05-04 03:07 | 36.74889 | -77.58210 | 37264 ft | 475 kts | 357° |
| 2026-05-04 03:08 | 36.78159 | -77.57725 | 36638 ft | 474 kts | 358° |
| 2026-05-04 03:08 | 36.81444 | -77.57200 | 36008 ft | 475 kts | 358° |
| 2026-05-04 03:08 | 36.84721 | -77.56660 | 35382 ft | 474 kts | 358° |
| 2026-05-04 03:08 | 36.87978 | -77.56137 | 34749 ft | 470 kts | 358° |
| 2026-05-04 03:09 | 36.91208 | -77.55632 | 34123 ft | 466 kts | 358° |
| 2026-05-04 03:09 | 36.94419 | -77.55124 | 33460 ft | 465 kts | 358° |
| 2026-05-04 03:09 | 36.97632 | -77.54611 | 32847 ft | 467 kts | 358° |
| 2026-05-04 03:09 | 37.00815 | -77.54102 | 32239 ft | 468 kts | 358° |
| 2026-05-04 03:10 | 37.04090 | -77.53577 | 31615 ft | 468 kts | 358° |
| 2026-05-04 03:10 | 37.07276 | -77.53066 | 31018 ft | 468 kts | 358° |
| 2026-05-04 03:10 | 37.10502 | -77.52549 | 30388 ft | 466 kts | 358° |
| 2026-05-04 03:10 | 37.13715 | -77.52036 | 29731 ft | 465 kts | 359° |
| 2026-05-04 03:11 | 37.16909 | -77.51521 | 29117 ft | 460 kts | 359° |
| 2026-05-04 03:11 | 37.20075 | -77.51011 | 28511 ft | 457 kts | 359° |
| 2026-05-04 03:11 | 37.23212 | -77.50511 | 27910 ft | 452 kts | 359° |
| 2026-05-04 03:11 | 37.26283 | -77.50009 | 27321 ft | 435 kts | 359° |
| 2026-05-04 03:12 | 37.29222 | -77.49526 | 26773 ft | 418 kts | 358° |
| 2026-05-04 03:12 | 37.32068 | -77.49076 | 26195 ft | 407 kts | 358° |
| 2026-05-04 03:12 | 37.34863 | -77.48637 | 25660 ft | 401 kts | 358° |
| 2026-05-04 03:12 | 37.37625 | -77.48192 | 25132 ft | 399 kts | 358° |
| 2026-05-04 03:13 | 37.40375 | -77.47744 | 24606 ft | 397 kts | 359° |
| 2026-05-04 03:13 | 37.43104 | -77.47303 | 24084 ft | 394 kts | 359° |
| 2026-05-04 03:13 | 37.45809 | -77.46865 | 23547 ft | 390 kts | 359° |
| 2026-05-04 03:13 | 37.48486 | -77.46433 | 23008 ft | 385 kts | 359° |
| 2026-05-04 03:14 | 37.51137 | -77.46005 | 22492 ft | 383 kts | 359° |
| 2026-05-04 03:14 | 37.53771 | -77.45577 | 21993 ft | 381 kts | 359° |
| 2026-05-04 03:14 | 37.56386 | -77.45153 | 21488 ft | 377 kts | 359° |
| 2026-05-04 03:14 | 37.58979 | -77.44693 | 20998 ft | 378 kts | 2° |
| 2026-05-04 03:15 | 37.61542 | -77.43891 | 20511 ft | 379 kts | 6° |
| 2026-05-04 03:15 | 37.64090 | -77.43102 | 20044 ft | 376 kts | 5° |
| 2026-05-04 03:15 | 37.66626 | -77.42349 | 19590 ft | 374 kts | 5° |
| 2026-05-04 03:15 | 37.69144 | -77.41576 | 19148 ft | 372 kts | 6° |
| 2026-05-04 03:16 | 37.71649 | -77.40793 | 18746 ft | 369 kts | 6° |
| 2026-05-04 03:16 | 37.74129 | -77.40023 | 18468 ft | 366 kts | 6° |
| 2026-05-04 03:16 | 37.76596 | -77.39270 | 18160 ft | 365 kts | 6° |
| 2026-05-04 03:16 | 37.79059 | -77.38508 | 17864 ft | 363 kts | 6° |
| 2026-05-04 03:17 | 37.81507 | -77.37750 | 17575 ft | 362 kts | 6° |
| 2026-05-04 03:17 | 37.83917 | -77.37005 | 17295 ft | 361 kts | 6° |
| 2026-05-04 03:17 | 37.86348 | -77.36251 | 17012 ft | 359 kts | 6° |
| 2026-05-04 03:17 | 37.88771 | -77.35501 | 16728 ft | 358 kts | 6° |
| 2026-05-04 03:18 | 37.91186 | -77.34754 | 16416 ft | 357 kts | 6° |
| 2026-05-04 03:18 | 37.93593 | -77.34017 | 16119 ft | 355 kts | 6° |
| 2026-05-04 03:18 | 37.95987 | -77.33281 | 15832 ft | 353 kts | 6° |
| 2026-05-04 03:18 | 37.98371 | -77.32546 | 15549 ft | 353 kts | 6° |
| 2026-05-04 03:19 | 38.00753 | -77.31813 | 15265 ft | 351 kts | 7° |
| 2026-05-04 03:19 | 38.03119 | -77.31083 | 14986 ft | 349 kts | 7° |
| 2026-05-04 03:19 | 38.05479 | -77.30355 | 14711 ft | 348 kts | 7° |
| 2026-05-04 03:19 | 38.07831 | -77.29628 | 14436 ft | 347 kts | 7° |
| 2026-05-04 03:20 | 38.10173 | -77.28896 | 14162 ft | 346 kts | 7° |
| 2026-05-04 03:20 | 38.12502 | -77.28158 | 13891 ft | 344 kts | 7° |
| 2026-05-04 03:20 | 38.14823 | -77.27429 | 13599 ft | 343 kts | 7° |
| 2026-05-04 03:20 | 38.17133 | -77.26705 | 13321 ft | 341 kts | 7° |
| 2026-05-04 03:21 | 38.19435 | -77.25980 | 13053 ft | 340 kts | 7° |
| 2026-05-04 03:21 | 38.21721 | -77.25168 | 12792 ft | 342 kts | 11° |
| 2026-05-04 03:21 | 38.23991 | -77.24292 | 12519 ft | 340 kts | 11° |
| 2026-05-04 03:21 | 38.26257 | -77.23436 | 12249 ft | 339 kts | 11° |
| 2026-05-04 03:22 | 38.28512 | -77.22590 | 11976 ft | 338 kts | 12° |
| 2026-05-04 03:22 | 38.30755 | -77.21738 | 11716 ft | 334 kts | 12° |
| 2026-05-04 03:22 | 38.32230 | -77.21180 | 11539 ft | 333 kts | 12° |
| 2026-05-04 03:22 | 38.34444 | -77.20345 | 11294 ft | 332 kts | 12° |
| 2026-05-04 03:23 | 38.36654 | -77.19508 | 11043 ft | 328 kts | 12° |
| 2026-05-04 03:23 | 38.38750 | -77.18698 | 11017 ft | 303 kts | 12° |
| 2026-05-04 03:23 | 38.40730 | -77.17930 | 11008 ft | 294 kts | 11° |
| 2026-05-04 03:23 | 38.42687 | -77.17183 | 11020 ft | 293 kts | 11° |
| 2026-05-04 03:24 | 38.44642 | -77.16430 | 11013 ft | 293 kts | 12° |
| 2026-05-04 03:24 | 38.46599 | -77.15674 | 11008 ft | 294 kts | 12° |
| 2026-05-04 03:24 | 38.48559 | -77.14915 | 11011 ft | 294 kts | 12° |
| 2026-05-04 03:24 | 38.50525 | -77.14156 | 10973 ft | 296 kts | 12° |
| 2026-05-04 03:25 | 38.52505 | -77.13392 | 10756 ft | 298 kts | 12° |
| 2026-05-04 03:25 | 38.54479 | -77.12624 | 10473 ft | 295 kts | 12° |
| 2026-05-04 03:25 | 38.56431 | -77.11868 | 10178 ft | 292 kts | 12° |
| 2026-05-04 03:25 | 38.58370 | -77.11119 | 9873 ft | 290 kts | 12° |
| 2026-05-04 03:26 | 38.60295 | -77.10377 | 9561 ft | 288 kts | 12° |
| 2026-05-04 03:26 | 38.62212 | -77.09642 | 9263 ft | 287 kts | 12° |
| 2026-05-04 03:26 | 38.64127 | -77.08902 | 8977 ft | 287 kts | 12° |
| 2026-05-04 03:26 | 38.66043 | -77.08165 | 8678 ft | 288 kts | 12° |
| 2026-05-04 03:27 | 38.67958 | -77.07425 | 8368 ft | 287 kts | 12° |
| 2026-05-04 03:27 | 38.69899 | -77.06986 | 8071 ft | 281 kts | 359° |
| 2026-05-04 03:27 | 38.71853 | -77.06838 | 7788 ft | 282 kts | 0° |
| 2026-05-04 03:27 | 38.73809 | -77.06612 | 7503 ft | 282 kts | 1° |
| 2026-05-04 03:28 | 38.75742 | -77.06680 | 7231 ft | 275 kts | 346° |
| 2026-05-04 03:28 | 38.77566 | -77.07332 | 6952 ft | 270 kts | 333° |
| 2026-05-04 03:28 | 38.79197 | -77.08470 | 6681 ft | 266 kts | 322° |
| 2026-05-04 03:28 | 38.80748 | -77.09760 | 6410 ft | 266 kts | 323° |
| 2026-05-04 03:29 | 38.82312 | -77.11029 | 6128 ft | 266 kts | 323° |
| 2026-05-04 03:29 | 38.83765 | -77.12438 | 6004 ft | 258 kts | 312° |
| 2026-05-04 03:29 | 38.85028 | -77.14080 | 6003 ft | 260 kts | 312° |
| 2026-05-04 03:29 | 38.86346 | -77.15683 | 6004 ft | 261 kts | 313° |
| 2026-05-04 03:30 | 38.87655 | -77.17286 | 6008 ft | 258 kts | 312° |
| 2026-05-04 03:30 | 38.88933 | -77.18887 | 6011 ft | 257 kts | 311° |
| 2026-05-04 03:30 | 38.90217 | -77.20492 | 6007 ft | 258 kts | 312° |
| 2026-05-04 03:30 | 38.91503 | -77.22092 | 6006 ft | 257 kts | 311° |
| 2026-05-04 03:31 | 38.92792 | -77.23701 | 6006 ft | 262 kts | 312° |
| 2026-05-04 03:31 | 38.93944 | -77.25496 | 5992 ft | 258 kts | 293° |
| 2026-05-04 03:31 | 38.94266 | -77.27705 | 5996 ft | 252 kts | 266° |
| 2026-05-04 03:31 | 38.93766 | -77.29832 | 5991 ft | 251 kts | 240° |
| 2026-05-04 03:32 | 38.92542 | -77.31418 | 5992 ft | 255 kts | 213° |
| 2026-05-04 03:32 | 38.90840 | -77.32080 | 5998 ft | 262 kts | 186° |
| 2026-05-04 03:32 | 38.89050 | -77.31577 | 5990 ft | 272 kts | 157° |
| 2026-05-04 03:32 | 38.87566 | -77.30051 | 5996 ft | 275 kts | 139° |
| 2026-05-04 03:33 | 38.86211 | -77.28320 | 6000 ft | 275 kts | 138° |
| 2026-05-04 03:33 | 38.84874 | -77.26608 | 5991 ft | 275 kts | 139° |
| 2026-05-04 03:33 | 38.83501 | -77.24899 | 5995 ft | 275 kts | 139° |
| 2026-05-04 03:33 | 38.82125 | -77.23198 | 5995 ft | 275 kts | 139° |
| 2026-05-04 03:34 | 38.80744 | -77.21482 | 5994 ft | 279 kts | 139° |
| 2026-05-04 03:34 | 38.79366 | -77.19739 | 5993 ft | 279 kts | 136° |
| 2026-05-04 03:34 | 38.78430 | -77.17557 | 5969 ft | 286 kts | 104° |
| 2026-05-04 03:34 | 38.78571 | -77.15033 | 5972 ft | 288 kts | 70° |
| 2026-05-04 03:35 | 38.79735 | -77.12992 | 5978 ft | 285 kts | 36° |
| 2026-05-04 03:35 | 38.81526 | -77.12048 | 5994 ft | 277 kts | 4° |
| 2026-05-04 03:35 | 38.83382 | -77.12383 | 5990 ft | 268 kts | 333° |
| 2026-05-04 03:35 | 38.84861 | -77.13755 | 5998 ft | 262 kts | 313° |
| 2026-05-04 03:36 | 38.86149 | -77.15407 | 6004 ft | 262 kts | 311° |
| 2026-05-04 03:36 | 38.87444 | -77.17058 | 6009 ft | 262 kts | 311° |
| 2026-05-04 03:36 | 38.88741 | -77.18667 | 6013 ft | 258 kts | 312° |
| 2026-05-04 03:36 | 38.90035 | -77.20267 | 6015 ft | 259 kts | 312° |
| 2026-05-04 03:37 | 38.91327 | -77.21874 | 6010 ft | 258 kts | 311° |
| 2026-05-04 03:37 | 38.92617 | -77.23484 | 6013 ft | 261 kts | 312° |
| 2026-05-04 03:37 | 38.93831 | -77.25223 | 5998 ft | 260 kts | 297° |
| 2026-05-04 03:37 | 38.94271 | -77.27409 | 5990 ft | 253 kts | 269° |
| 2026-05-04 03:38 | 38.94216 | -77.29657 | 5987 ft | 254 kts | 276° |
| 2026-05-04 03:38 | 38.95045 | -77.31661 | 5989 ft | 263 kts | 313° |
| 2026-05-04 03:38 | 38.96665 | -77.32663 | 5958 ft | 262 kts | 347° |
| 2026-05-04 03:38 | 38.98480 | -77.32521 | 5739 ft | 264 kts | 11° |
| 2026-05-04 03:39 | 39.00095 | -77.31431 | 5442 ft | 264 kts | 39° |
| 2026-05-04 03:39 | 39.01165 | -77.29542 | 5124 ft | 262 kts | 68° |
| 2026-05-04 03:39 | 39.01441 | -77.27267 | 4798 ft | 258 kts | 96° |
| 2026-05-04 03:39 | 39.00891 | -77.25124 | 4460 ft | 252 kts | 121° |
| 2026-05-04 03:40 | 38.99974 | -77.23220 | 4157 ft | 250 kts | 124° |
| 2026-05-04 03:40 | 38.99081 | -77.21292 | 3830 ft | 252 kts | 121° |
| 2026-05-04 03:40 | 38.98239 | -77.19323 | 3503 ft | 251 kts | 120° |
| 2026-05-04 03:40 | 38.97400 | -77.17373 | 3165 ft | 248 kts | 121° |
| 2026-05-04 03:41 | 38.96519 | -77.15481 | 2831 ft | 245 kts | 128° |